El Paso, TX (88541)

7:21 PM MDT on August 27, 2015 (GMT -0600)
Shock | | Change Station
CLOSE
Current Station
Personal Weather Station
Location: El Paso, TX
Elevation: 3924 ft
Nearby Weather Stations

Elev 3924 ft 31.76 °N, 106.33 °W | Updated 14 minutes ago

Mostly Cloudy
Mostly Cloudy
90.9 °F
Feels Like 89 °F
N
0.0
Wind Variable Wind from NNW

Today
High -- | Low -- °F
--% Chance of Precip.
Yesterday
High -- | Low -- °F
Precip. -- in
6:38 AM 7:35 PM
Waxing Gibbous, 96% visible
Pressure 29.81 in
Visibility 10.0 miles
Clouds Scattered Clouds 9500 ft
Scattered Clouds 14000 ft
Mostly Cloudy 25000 ft
Heat Index 89 °F
Dew Point 54 °F
Humidity 29%
Rainfall 0.00 in
Snow Depth Not available.
UV 0 out of 12
Pollen 8.30 out of 12
Air Quality Not available.
Flu Activity Not available.
METAR KELP 280051Z 12003KT 10SM SCT095 SCT140 BKN250 33/11 A3005 RMK AO2 SLP095 OCNL LTGCG DSNT NE CB DSNT NE SHRA DSNT N NE AND SW T03280111 $
Pressure 29.81 in
Visibility 10.0 miles
Clouds Scattered Clouds 9500 ft
Scattered Clouds 14000 ft
Mostly Cloudy 25000 ft
Heat Index 89 °F
Dew Point 54 °F
Humidity 29%
Rainfall 0.00 in
Snow Depth Not available.
UV 0 out of 12
Pollen 8.30 out of 12
Air Quality Not available.
Flu Activity Not available.
METAR KELP 280051Z 12003KT 10SM SCT095 SCT140 BKN250 33/11 A3005 RMK AO2 SLP095 OCNL LTGCG DSNT NE CB DSNT NE SHRA DSNT N NE AND SW T03280111 $
Nowcast | as of 7:07 PM MDT on August 27, 2015

At 705 PM MDT...isolated showers and thunderstorms continued to pop up across much of southern New Mexico and adjacent areas in far West Texas. The strongest storm was located just west of Radium Springs with another strong cell located 10 miles northeast of Columbus. In general these storms are slowly drifting east at between 5 and 10 mph. Heavy rainfall and occasional cloud to ground lightning remain the primary threats from these storms. As these storms die off look for additional storms to pop up nearby over the course of the next hour.

×

10-Day Weather Forecast

×

Almanac

Astronomy

Aug. 27, 2015 Rise Set
Actual Time
Civil Twilight
Nautical Twilight
Astronomical Twilight
Moon
Length of Visible Light
Length of Day
Tomorrow will be .
, % of the Moon is Illuminated

Today's Extremes

State Highs State Lows

Community

WunderPhotos

Upload Photos

1,850,297 photos uploaded!

WunderBlogs® & News

Nearby

Air Quality

  Air Quality AQ Index Pollutant
Not available.

Snow Depth

Station Depth Elevation

Earthquake Activity

City Distance Mag. Time & Date
Minimum magnitude displayed is 2.5.

Coastal Water Temperatures

Place Temperature

Stations

Nearby Weather Stations

Station Location Temp. Windchill Dew Point Humidity Wind Precip. Elev Updated Type